createdAt,value
2023-01-18T00:01:38.318Z,95783.00
2023-01-18T00:04:09.301Z,95781.00
2023-01-18T00:06:40.169Z,95787.00
2023-01-18T00:09:12.367Z,95785.00
2023-01-18T00:11:43.193Z,95786.00
2023-01-18T00:14:14.041Z,95796.00
2023-01-18T00:16:44.881Z,95795.00
2023-01-18T00:19:19.489Z,95793.00
2023-01-18T00:21:54.293Z,95789.00
2023-01-18T00:24:27.782Z,95789.00
2023-01-18T00:26:58.642Z,95781.00
2023-01-18T00:29:31.337Z,95793.00
2023-01-18T00:32:02.242Z,95795.00
2023-01-18T00:34:33.211Z,95800.00
2023-01-18T00:37:04.087Z,95792.00
2023-01-18T00:39:34.976Z,95801.00
2023-01-18T00:42:24.219Z,95793.00
2023-01-18T00:44:55.091Z,95793.00
2023-01-18T00:47:27.555Z,95805.00
2023-01-18T00:49:58.417Z,95800.00
2023-01-18T00:52:29.295Z,95797.00
2023-01-18T00:55:01.285Z,95799.00
2023-01-18T00:57:32.259Z,95806.00
2023-01-18T01:00:04.449Z,95808.00
2023-01-18T01:02:39.929Z,95803.00
2023-01-18T01:05:44.630Z,95803.00
2023-01-18T01:08:21.103Z,95803.00
2023-01-18T01:10:54.864Z,95799.00
2023-01-18T01:13:44.255Z,95806.00
2023-01-18T01:16:33.564Z,95803.00
2023-01-18T01:19:23.110Z,95808.00
2023-01-18T01:22:12.716Z,95811.00
2023-01-18T01:25:01.934Z,95816.00
2023-01-18T01:27:32.788Z,95808.00
2023-01-18T01:30:04.480Z,95820.00
2023-01-18T01:32:35.375Z,95824.00
2023-01-18T01:35:06.512Z,95829.00
2023-01-18T01:37:37.375Z,95827.00
2023-01-18T01:40:09.314Z,95838.00
2023-01-18T01:42:40.195Z,95827.00
2023-01-18T01:45:11.209Z,95822.00
2023-01-18T01:47:44.349Z,95827.00
2023-01-18T01:50:35.976Z,95823.00
2023-01-18T01:53:08.896Z,95827.00
2023-01-18T01:55:40.661Z,95829.00
2023-01-18T01:58:17.008Z,95834.00
2023-01-18T02:00:48.243Z,95841.00
2023-01-18T02:03:20.067Z,95842.00
2023-01-18T02:06:01.672Z,95853.00
2023-01-18T02:08:32.566Z,95854.00
2023-01-18T02:11:03.394Z,95861.00
2023-01-18T02:13:34.454Z,95853.00
2023-01-18T02:16:29.402Z,95858.00
2023-01-18T02:19:17.636Z,95858.00
2023-01-18T02:21:57.025Z,95861.00
2023-01-18T02:24:59.044Z,95860.00
2023-01-18T02:28:10.291Z,95869.00
2023-01-18T02:30:56.930Z,95872.00
2023-01-18T02:33:47.061Z,95875.00
2023-01-18T02:36:43.979Z,95876.00
2023-01-18T02:39:38.231Z,95876.00
2023-01-18T02:42:39.221Z,95878.00
2023-01-18T02:46:02.639Z,95884.00
2023-01-18T02:48:40.631Z,95885.00
2023-01-18T02:51:12.561Z,95896.00
2023-01-18T02:53:46.342Z,95890.00
2023-01-18T02:56:38.785Z,95894.00
2023-01-18T02:59:21.165Z,95887.00
2023-01-18T03:02:06.352Z,95887.00
2023-01-18T03:04:54.220Z,95891.00
2023-01-18T03:08:13.776Z,95888.00
2023-01-18T03:11:35.592Z,95890.00
2023-01-18T03:15:01.656Z,95903.00
2023-01-18T03:17:40.517Z,95896.00
2023-01-18T03:20:15.139Z,95901.00
2023-01-18T03:23:12.703Z,95911.00
2023-01-18T03:25:48.220Z,95908.00
2023-01-18T03:29:01.817Z,95904.00
2023-01-18T03:32:08.743Z,95905.00
2023-01-18T03:34:58.626Z,95898.00
2023-01-18T03:37:38.130Z,95910.00
2023-01-18T03:40:19.836Z,95909.00
2023-01-18T03:43:00.522Z,95917.00
2023-01-18T03:45:42.222Z,95921.00
2023-01-18T03:48:13.584Z,95927.00
2023-01-18T03:50:51.899Z,95928.00
2023-01-18T03:53:34.973Z,95930.00
2023-01-18T03:56:22.063Z,95924.00
2023-01-18T03:58:57.355Z,95924.00
2023-01-18T04:01:28.634Z,95927.00
2023-01-18T04:03:59.605Z,95935.00
2023-01-18T04:06:33.355Z,95944.00
2023-01-18T04:09:04.449Z,95937.00
2023-01-18T04:11:35.418Z,95935.00
2023-01-18T04:14:06.306Z,95932.00
2023-01-18T04:16:39.456Z,95930.00
2023-01-18T04:19:10.871Z,95939.00
2023-01-18T04:21:41.693Z,95943.00
2023-01-18T04:24:13.003Z,95952.00
2023-01-18T04:26:43.838Z,95955.00
2023-01-18T04:29:14.699Z,95955.00
2023-01-18T04:31:45.625Z,95958.00
2023-01-18T04:34:16.554Z,95963.00
2023-01-18T04:36:47.501Z,95961.00
2023-01-18T04:39:18.935Z,95964.00
2023-01-18T04:41:50.008Z,95972.00
2023-01-18T04:44:21.902Z,95977.00
2023-01-18T04:46:52.803Z,95975.00
2023-01-18T04:49:24.174Z,95980.00
2023-01-18T04:51:55.055Z,95983.00
2023-01-18T04:54:26.232Z,96003.00
2023-01-18T04:56:57.197Z,95990.00
2023-01-18T04:59:28.625Z,96000.00
2023-01-18T05:01:59.524Z,96007.00
2023-01-18T05:04:30.711Z,96008.00
2023-01-18T05:07:02.315Z,96013.00
2023-01-18T05:09:34.182Z,96014.00
2023-01-18T05:12:05.446Z,96014.00
2023-01-18T05:14:36.289Z,96028.00
2023-01-18T05:17:07.405Z,96029.00
2023-01-18T05:19:39.191Z,96041.00
2023-01-18T05:22:10.026Z,96045.00
2023-01-18T05:24:40.880Z,96051.00
2023-01-18T05:27:13.489Z,96065.00
2023-01-18T05:29:45.947Z,96066.00
2023-01-18T05:32:17.449Z,96077.00
2023-01-18T05:34:49.202Z,96078.00
2023-01-18T05:37:20.100Z,96075.00
2023-01-18T05:39:51.046Z,96083.00
2023-01-18T05:42:21.875Z,96119.00
2023-01-18T05:44:52.725Z,96093.00
2023-01-18T05:47:23.618Z,96091.00
2023-01-18T05:49:54.500Z,96096.00
2023-01-18T05:52:25.410Z,96101.00
2023-01-18T05:54:56.228Z,96106.00
2023-01-18T05:57:27.128Z,96111.00
2023-01-18T05:59:57.985Z,96114.00
2023-01-18T06:02:28.837Z,96125.00
2023-01-18T06:04:59.675Z,96137.00
2023-01-18T06:07:30.517Z,96146.00
2023-01-18T06:10:01.412Z,96150.00
2023-01-18T06:12:32.267Z,96155.00
2023-01-18T06:15:03.327Z,96169.00
2023-01-18T06:17:34.489Z,96166.00
2023-01-18T06:20:06.956Z,96202.00
2023-01-18T06:22:38.041Z,96178.00
2023-01-18T06:25:10.277Z,96182.00
2023-01-18T06:27:41.650Z,96184.00
2023-01-18T06:30:12.923Z,96190.00
2023-01-18T06:32:45.061Z,96186.00
2023-01-18T06:35:16.132Z,96203.00
2023-01-18T06:37:47.119Z,96206.00
2023-01-18T06:40:18.174Z,96207.00
2023-01-18T06:42:49.149Z,96213.00
2023-01-18T06:45:22.527Z,96219.00
2023-01-18T06:47:53.631Z,96219.00
2023-01-18T06:50:24.651Z,96229.00
2023-01-18T06:52:58.940Z,96237.00
2023-01-18T06:55:30.003Z,96234.00
2023-01-18T06:58:02.599Z,96242.00
2023-01-18T07:00:34.183Z,96251.00
2023-01-18T07:03:05.247Z,96251.00
2023-01-18T07:05:36.271Z,96254.00
2023-01-18T07:08:07.115Z,96251.00
2023-01-18T07:10:38.035Z,96282.00
2023-01-18T07:13:08.883Z,96270.00
2023-01-18T07:15:39.785Z,96265.00
2023-01-18T07:18:10.724Z,96272.00
2023-01-18T07:20:41.655Z,96274.00
2023-01-18T07:23:12.483Z,96283.00
2023-01-18T07:25:43.323Z,96318.00
2023-01-18T07:28:14.139Z,96300.00
2023-01-18T07:30:45.070Z,96308.00
2023-01-18T07:33:15.922Z,96306.00
2023-01-18T07:35:46.982Z,96316.00
2023-01-18T07:38:18.646Z,96330.00
2023-01-18T07:40:50.167Z,96326.00
2023-01-18T07:43:21.035Z,96329.00
2023-01-18T07:45:58.102Z,96342.00
2023-01-18T07:48:29.564Z,96342.00
2023-01-18T07:51:06.560Z,96342.00
2023-01-18T07:53:38.938Z,96357.00
2023-01-18T07:56:17.417Z,96365.00
2023-01-18T07:58:48.800Z,96361.00
2023-01-18T08:01:22.728Z,96365.00
2023-01-18T08:03:54.747Z,96371.00
2023-01-18T08:06:27.186Z,96378.00
2023-01-18T08:08:58.148Z,96380.00
2023-01-18T08:11:29.031Z,96395.00
2023-01-18T08:13:59.916Z,96389.00
2023-01-18T08:16:30.761Z,96396.00
2023-01-18T08:19:01.617Z,96391.00
2023-01-18T08:21:33.604Z,96410.00
2023-01-18T08:24:04.625Z,96407.00
2023-01-18T08:26:35.594Z,96412.00
2023-01-18T08:29:06.545Z,96419.00
2023-01-18T08:31:37.471Z,96419.00
2023-01-18T08:34:08.324Z,96431.00
2023-01-18T08:36:40.598Z,96431.00
2023-01-18T08:39:13.561Z,96441.00
2023-01-18T08:41:46.583Z,96445.00
2023-01-18T08:44:17.484Z,96474.00
2023-01-18T08:46:48.449Z,96457.00
2023-01-18T08:49:19.314Z,96462.00
2023-01-18T08:51:53.596Z,96477.00
2023-01-18T08:54:24.874Z,96486.00
2023-01-18T08:56:55.719Z,96486.00
2023-01-18T08:59:26.642Z,96483.00
2023-01-18T09:01:58.675Z,96478.00
2023-01-18T09:04:30.134Z,96488.00
2023-01-18T09:07:00.967Z,96494.00
2023-01-18T09:09:31.845Z,96501.00
2023-01-18T09:12:02.695Z,96504.00
2023-01-18T09:14:33.711Z,96513.00
2023-01-18T09:17:04.791Z,96538.00
2023-01-18T09:19:35.720Z,96522.00
2023-01-18T09:22:06.787Z,96514.00
2023-01-18T09:24:37.743Z,96521.00
2023-01-18T09:27:08.601Z,96532.00
2023-01-18T09:29:40.335Z,96540.00
2023-01-18T09:32:11.264Z,96552.00
2023-01-18T09:34:42.203Z,96550.00
2023-01-18T09:37:13.211Z,96557.00
2023-01-18T09:39:51.934Z,96566.00
2023-01-18T09:42:30.531Z,96592.00
2023-01-18T09:45:02.463Z,96575.00
2023-01-18T09:47:46.485Z,96592.00
2023-01-18T09:50:21.171Z,96597.00
2023-01-18T09:53:38.017Z,96592.00
2023-01-18T09:56:16.956Z,96592.00
2023-01-18T09:59:24.856Z,96601.00
2023-01-18T10:01:56.230Z,96601.00
2023-01-18T10:04:36.247Z,96601.00
2023-01-18T10:07:15.011Z,96610.00
2023-01-18T10:09:52.903Z,96614.00
2023-01-18T10:12:32.360Z,96612.00
2023-01-18T10:15:36.824Z,96618.00
2023-01-18T10:18:09.612Z,96627.00
2023-01-18T10:21:01.404Z,96614.00
2023-01-18T10:24:06.964Z,96625.00
2023-01-18T10:26:39.717Z,96631.00
2023-01-18T10:29:41.565Z,96625.00
2023-01-18T10:32:19.166Z,96640.00
2023-01-18T10:34:51.965Z,96646.00
2023-01-18T10:37:45.323Z,96646.00
2023-01-18T10:40:16.526Z,96655.00
2023-01-18T10:42:51.786Z,96658.00
2023-01-18T10:45:29.458Z,96658.00
2023-01-18T10:48:25.870Z,96662.00
2023-01-18T10:51:07.106Z,96654.00
2023-01-18T10:53:39.907Z,96658.00
2023-01-18T10:56:10.894Z,96660.00
2023-01-18T10:59:02.922Z,96667.00
2023-01-18T11:01:37.283Z,96668.00
2023-01-18T11:04:29.595Z,96673.00
2023-01-18T11:07:03.320Z,96669.00
2023-01-18T11:09:46.875Z,96683.00
2023-01-18T11:12:33.762Z,96674.00
2023-01-18T11:15:13.764Z,96684.00
2023-01-18T11:18:01.907Z,96688.00
2023-01-18T11:20:50.785Z,96687.00
2023-01-18T11:23:37.633Z,96682.00
2023-01-18T11:26:19.159Z,96681.00
2023-01-18T11:29:00.159Z,96697.00
2023-01-18T11:31:45.541Z,96699.00
2023-01-18T11:34:27.987Z,96701.00
2023-01-18T11:37:00.888Z,96700.00
2023-01-18T11:39:34.267Z,96712.00
2023-01-18T11:42:35.664Z,96714.00
2023-01-18T11:45:27.080Z,96706.00
2023-01-18T11:48:06.888Z,96711.00
2023-01-18T11:51:07.289Z,96718.00
2023-01-18T11:54:01.474Z,96718.00
2023-01-18T11:56:40.781Z,96713.00
2023-01-18T11:59:28.263Z,96716.00
2023-01-18T12:02:17.974Z,96728.00
2023-01-18T12:05:45.942Z,96721.00
2023-01-18T12:09:03.624Z,96746.00
2023-01-18T12:12:22.914Z,96741.00
2023-01-18T12:15:54.429Z,96749.00
2023-01-18T12:18:42.936Z,96759.00
2023-01-18T12:21:27.619Z,96755.00
2023-01-18T12:24:11.390Z,96746.00
2023-01-18T12:26:52.699Z,96755.00
2023-01-18T12:29:44.915Z,96758.00
2023-01-18T12:33:02.215Z,96768.00
2023-01-18T12:35:53.462Z,96770.00
2023-01-18T12:38:29.862Z,96779.00
2023-01-18T12:41:26.351Z,96786.00
2023-01-18T12:44:29.964Z,96789.00
2023-01-18T12:48:02.840Z,96807.00
2023-01-18T12:50:39.685Z,96809.00
2023-01-18T12:53:41.358Z,96788.00
2023-01-18T12:56:30.054Z,96811.00
2023-01-18T12:59:11.478Z,96799.00
2023-01-18T13:01:55.902Z,96798.00
2023-01-18T13:04:49.880Z,96815.00
2023-01-18T13:07:29.911Z,96818.00
2023-01-18T13:10:01.621Z,96812.00
2023-01-18T13:12:32.948Z,96818.00
2023-01-18T13:15:42.999Z,96821.00
2023-01-18T13:18:43.469Z,96809.00
2023-01-18T13:21:40.807Z,96808.00
2023-01-18T13:24:57.968Z,96822.00
2023-01-18T13:27:31.276Z,96825.00
2023-01-18T13:30:19.375Z,96832.00
2023-01-18T13:32:50.730Z,96831.00
2023-01-18T13:35:36.156Z,96838.00
2023-01-18T13:38:12.666Z,96849.00
2023-01-18T13:40:56.274Z,96861.00
2023-01-18T13:43:53.877Z,96866.00
2023-01-18T13:46:26.243Z,96864.00
2023-01-18T13:49:36.371Z,96908.00
2023-01-18T13:52:35.695Z,96883.00
2023-01-18T13:55:31.137Z,96890.00
2023-01-18T13:58:02.458Z,96896.00
2023-01-18T14:00:35.209Z,96920.00
2023-01-18T14:03:22.460Z,96897.00
2023-01-18T14:05:57.102Z,96894.00
2023-01-18T14:08:32.590Z,96903.00
2023-01-18T14:11:08.402Z,96911.00
2023-01-18T14:13:45.343Z,96907.00
2023-01-18T14:16:29.263Z,96920.00
2023-01-18T14:19:22.157Z,96923.00
2023-01-18T14:22:26.910Z,96929.00
2023-01-18T14:25:48.110Z,96931.00
2023-01-18T14:28:26.561Z,96948.00
2023-01-18T14:30:59.629Z,96944.00
2023-01-18T14:33:36.561Z,96940.00
2023-01-18T14:36:17.048Z,96957.00
2023-01-18T14:38:48.154Z,96958.00
2023-01-18T14:41:19.378Z,96959.00
2023-01-18T14:43:51.729Z,96968.00
2023-01-18T14:46:26.656Z,96965.00
2023-01-18T14:49:01.716Z,96965.00
2023-01-18T14:51:32.781Z,96962.00
2023-01-18T14:54:05.982Z,96974.00
2023-01-18T14:56:42.979Z,96976.00
2023-01-18T14:59:24.734Z,96984.00
2023-01-18T15:02:00.959Z,96996.00
2023-01-18T15:04:35.387Z,97000.00
2023-01-18T15:07:10.535Z,96998.00
2023-01-18T15:09:44.264Z,97011.00
2023-01-18T15:12:29.006Z,97014.00
2023-01-18T15:15:27.808Z,97016.00
2023-01-18T15:18:12.461Z,97027.00
2023-01-18T15:21:00.196Z,97032.00
2023-01-18T15:23:36.460Z,97031.00
2023-01-18T15:26:07.498Z,97044.00
2023-01-18T15:28:39.476Z,97039.00
2023-01-18T15:31:16.206Z,97044.00
2023-01-18T15:33:47.481Z,97052.00
2023-01-18T15:36:18.452Z,97048.00
2023-01-18T15:38:49.346Z,97051.00
2023-01-18T15:41:21.464Z,97060.00
2023-01-18T15:43:52.984Z,97060.00
2023-01-18T15:46:25.945Z,97053.00
2023-01-18T15:48:58.368Z,97074.00
2023-01-18T15:51:47.735Z,97075.00
2023-01-18T15:54:24.490Z,97089.00
2023-01-18T15:57:13.009Z,97083.00
2023-01-18T15:59:44.145Z,97091.00
2023-01-18T16:02:21.936Z,97094.00
2023-01-18T16:05:20.929Z,97109.00
2023-01-18T16:08:16.180Z,97098.00
2023-01-18T16:10:57.664Z,97101.00
2023-01-18T16:13:39.500Z,97113.00
2023-01-18T16:16:19.676Z,97114.00
2023-01-18T16:19:29.056Z,97114.00
2023-01-18T16:22:04.543Z,97126.00
2023-01-18T16:24:51.339Z,97144.00
2023-01-18T16:27:25.860Z,97137.00
2023-01-18T16:30:07.633Z,97133.00
2023-01-18T16:32:38.971Z,97131.00
2023-01-18T16:35:14.695Z,97143.00
2023-01-18T16:37:46.913Z,97152.00
2023-01-18T16:40:21.919Z,97147.00
2023-01-18T16:43:22.582Z,97143.00
2023-01-18T16:45:56.334Z,97155.00
2023-01-18T16:48:29.435Z,97152.00
2023-01-18T16:51:01.391Z,97175.00
2023-01-18T16:53:32.941Z,97161.00
2023-01-18T16:56:03.870Z,97160.00
2023-01-18T16:58:35.309Z,97164.00
2023-01-18T17:01:11.202Z,97165.00
2023-01-18T17:03:45.223Z,97165.00
2023-01-18T17:06:23.624Z,97175.00
2023-01-18T17:08:54.564Z,97181.00
2023-01-18T17:11:25.407Z,97181.00
2023-01-18T17:13:56.265Z,97181.00
2023-01-18T17:16:27.137Z,97188.00
2023-01-18T17:18:58.012Z,97194.00
2023-01-18T17:21:28.877Z,97193.00
2023-01-18T17:23:59.758Z,97203.00
2023-01-18T17:26:30.711Z,97211.00
2023-01-18T17:29:02.576Z,97213.00
2023-01-18T17:31:35.374Z,97219.00
2023-01-18T17:34:10.247Z,97216.00
2023-01-18T17:36:41.093Z,97247.00
2023-01-18T17:39:12.935Z,97224.00
2023-01-18T17:41:43.851Z,97223.00
2023-01-18T17:44:14.723Z,97230.00
2023-01-18T17:46:45.616Z,97226.00
2023-01-18T17:49:16.504Z,97234.00
2023-01-18T17:51:47.371Z,97255.00
2023-01-18T17:54:20.966Z,97258.00
2023-01-18T17:56:53.181Z,97260.00
2023-01-18T17:59:24.471Z,97270.00
2023-01-18T18:01:55.394Z,97271.00
2023-01-18T18:04:26.317Z,97278.00
2023-01-18T18:06:58.532Z,97286.00
2023-01-18T18:09:29.670Z,97281.00
2023-01-18T18:12:00.544Z,97284.00
2023-01-18T18:14:34.283Z,97278.00
2023-01-18T18:17:06.612Z,97289.00
2023-01-18T18:19:37.496Z,97287.00
2023-01-18T18:22:08.397Z,97300.00
2023-01-18T18:24:39.616Z,97299.00
2023-01-18T18:27:10.566Z,97303.00
2023-01-18T18:29:41.611Z,97295.00
2023-01-18T18:32:14.069Z,97308.00
2023-01-18T18:34:45.051Z,97310.00
2023-01-18T18:37:16.113Z,97331.00
2023-01-18T18:39:47.022Z,97324.00
2023-01-18T18:42:17.920Z,97325.00
2023-01-18T18:44:48.787Z,97332.00
2023-01-18T18:47:19.624Z,97340.00
2023-01-18T18:49:50.829Z,97341.00
2023-01-18T18:52:21.756Z,97348.00
2023-01-18T18:54:52.688Z,97342.00
2023-01-18T18:57:23.524Z,97358.00
2023-01-18T18:59:54.435Z,97354.00
2023-01-18T19:02:25.487Z,97358.00
2023-01-18T19:04:56.365Z,97373.00
2023-01-18T19:07:27.906Z,97373.00
2023-01-18T19:09:58.784Z,97363.00
2023-01-18T19:12:29.964Z,97384.00
2023-01-18T19:15:01.076Z,97378.00
2023-01-18T19:17:32.355Z,97383.00
2023-01-18T19:20:04.610Z,97392.00
2023-01-18T19:22:38.291Z,97400.00
2023-01-18T19:25:09.633Z,97393.00
2023-01-18T19:27:40.587Z,97395.00
2023-01-18T19:30:18.667Z,97399.00
2023-01-18T19:32:51.138Z,97399.00
2023-01-18T19:35:22.108Z,97404.00
2023-01-18T19:37:53.661Z,97411.00
2023-01-18T19:40:24.761Z,97408.00
2023-01-18T19:42:56.000Z,97412.00
2023-01-18T19:45:29.115Z,97423.00
2023-01-18T19:48:01.776Z,97420.00
2023-01-18T19:50:32.739Z,97426.00
2023-01-18T19:53:03.770Z,97432.00
2023-01-18T19:55:36.477Z,97430.00
2023-01-18T19:58:07.468Z,97433.00
2023-01-18T20:00:41.232Z,97434.00
2023-01-18T20:03:13.699Z,97430.00
2023-01-18T20:05:45.403Z,97437.00
2023-01-18T20:08:16.323Z,97444.00
2023-01-18T20:10:47.952Z,97447.00
2023-01-18T20:13:19.138Z,97442.00
2023-01-18T20:15:54.026Z,97451.00
2023-01-18T20:18:24.929Z,97465.00
2023-01-18T20:20:57.123Z,97464.00
2023-01-18T20:23:28.706Z,97495.00
2023-01-18T20:26:00.523Z,97481.00
2023-01-18T20:28:34.431Z,97468.00
2023-01-18T20:31:06.283Z,97472.00
2023-01-18T20:33:38.376Z,97488.00
2023-01-18T20:36:09.533Z,97487.00
2023-01-18T20:38:41.903Z,97491.00
2023-01-18T20:41:12.890Z,97485.00
2023-01-18T20:43:43.910Z,97494.00
2023-01-18T20:46:15.017Z,97488.00
2023-01-18T20:48:45.902Z,97490.00
2023-01-18T20:51:17.950Z,97496.00
2023-01-18T20:53:48.914Z,97504.00
2023-01-18T20:56:34.824Z,97511.00
2023-01-18T20:59:05.766Z,97499.00
2023-01-18T21:01:36.778Z,97511.00
2023-01-18T21:04:08.058Z,97517.00
2023-01-18T21:06:38.901Z,97522.00
2023-01-18T21:09:09.778Z,97530.00
2023-01-18T21:11:40.687Z,97532.00
2023-01-18T21:14:12.754Z,97534.00
2023-01-18T21:16:44.202Z,97537.00
2023-01-18T21:19:15.138Z,97534.00
2023-01-18T21:21:46.035Z,97534.00
2023-01-18T21:24:17.189Z,97543.00
2023-01-18T21:26:48.042Z,97549.00
2023-01-18T21:29:19.019Z,97553.00
2023-01-18T21:31:50.028Z,97560.00
2023-01-18T21:34:21.218Z,97557.00
2023-01-18T21:36:52.484Z,97564.00
2023-01-18T21:39:28.301Z,97558.00
2023-01-18T21:42:17.884Z,97564.00
2023-01-18T21:45:07.236Z,97559.00
2023-01-18T21:47:38.069Z,97558.00
2023-01-18T21:50:28.384Z,97575.00
2023-01-18T21:53:17.968Z,97575.00
2023-01-18T21:55:48.882Z,97570.00
2023-01-18T21:58:38.075Z,97576.00
2023-01-18T22:01:18.188Z,97579.00
2023-01-18T22:04:10.604Z,97577.00
2023-01-18T22:06:41.511Z,97588.00
2023-01-18T22:09:12.651Z,97590.00
2023-01-18T22:11:44.102Z,97601.00
2023-01-18T22:14:15.366Z,97604.00
2023-01-18T22:16:46.255Z,97611.00
2023-01-18T22:19:19.097Z,97617.00
2023-01-18T22:21:53.021Z,97614.00
2023-01-18T22:24:23.887Z,97620.00
2023-01-18T22:26:55.027Z,97625.00
2023-01-18T22:29:25.884Z,97630.00
2023-01-18T22:31:57.142Z,97628.00
2023-01-18T22:34:28.250Z,97630.00
2023-01-18T22:36:59.228Z,97655.00
2023-01-18T22:39:30.149Z,97636.00
2023-01-18T22:42:01.101Z,97645.00
2023-01-18T22:44:32.869Z,97643.00
2023-01-18T22:47:03.824Z,97643.00
2023-01-18T22:49:34.699Z,97649.00
2023-01-18T22:52:05.644Z,97637.00
2023-01-18T22:54:36.507Z,97646.00
2023-01-18T22:57:07.377Z,97647.00
2023-01-18T22:59:40.961Z,97644.00
2023-01-18T23:02:11.781Z,97648.00
2023-01-18T23:04:42.652Z,97653.00
2023-01-18T23:07:14.212Z,97656.00
2023-01-18T23:09:45.116Z,97669.00
2023-01-18T23:12:16.053Z,97663.00
2023-01-18T23:15:05.287Z,97671.00
2023-01-18T23:17:39.032Z,97673.00
2023-01-18T23:20:16.129Z,97682.00
2023-01-18T23:22:46.992Z,97682.00
2023-01-18T23:25:18.255Z,97683.00
2023-01-18T23:27:49.173Z,97682.00
2023-01-18T23:30:20.128Z,97684.00
2023-01-18T23:32:51.005Z,97684.00
2023-01-18T23:35:22.104Z,97680.00
2023-01-18T23:37:54.343Z,97683.00
2023-01-18T23:40:43.732Z,97692.00
2023-01-18T23:43:32.973Z,97690.00
2023-01-18T23:46:22.499Z,97691.00
2023-01-18T23:49:11.778Z,97700.00
2023-01-18T23:52:01.326Z,97692.00
2023-01-18T23:54:32.182Z,97700.00
2023-01-18T23:57:03.589Z,97704.00
2023-01-18T23:59:34.851Z,97700.00
